createdAt,value
2018-08-20T00:00:09.057Z,20.40
2018-08-20T00:02:38.030Z,20.40
2018-08-20T00:05:06.308Z,20.40
2018-08-20T00:07:34.551Z,20.30
2018-08-20T00:10:02.796Z,20.30
2018-08-20T00:12:30.992Z,20.30
2018-08-20T00:14:59.213Z,20.20
2018-08-20T00:17:27.419Z,20.20
2018-08-20T00:19:55.687Z,20.20
2018-08-20T00:22:24.702Z,20.20
2018-08-20T00:24:52.988Z,20.10
2018-08-20T00:27:21.233Z,20.10
2018-08-20T00:29:50.247Z,20.00
2018-08-20T00:32:18.454Z,20.00
2018-08-20T00:34:46.707Z,20.00
2018-08-20T00:37:14.915Z,19.90
2018-08-20T00:39:43.169Z,19.90
2018-08-20T00:42:11.382Z,19.80
2018-08-20T00:44:39.615Z,19.80
2018-08-20T00:47:07.863Z,19.80
2018-08-20T00:49:36.831Z,19.70
2018-08-20T00:52:05.067Z,19.70
2018-08-20T00:54:33.275Z,19.70
2018-08-20T00:57:01.555Z,19.70
2018-08-20T00:59:29.789Z,19.70
2018-08-20T01:01:58.050Z,19.70
2018-08-20T01:04:26.283Z,19.70
2018-08-20T01:06:54.463Z,19.60
2018-08-20T01:09:22.693Z,19.60
2018-08-20T01:11:50.946Z,19.50
2018-08-20T01:14:19.972Z,19.40
2018-08-20T01:16:48.166Z,19.40
2018-08-20T01:19:16.436Z,19.40
2018-08-20T01:21:44.631Z,19.30
2018-08-20T01:24:12.860Z,19.20
2018-08-20T01:26:41.070Z,19.20
2018-08-20T01:29:09.282Z,19.20
2018-08-20T01:31:38.264Z,19.10
2018-08-20T01:34:06.535Z,19.10
2018-08-20T01:36:34.748Z,19.00
2018-08-20T01:39:02.961Z,19.00
2018-08-20T01:41:31.233Z,19.00
2018-08-20T01:43:59.436Z,19.00
2018-08-20T01:46:27.706Z,18.90
2018-08-20T01:48:55.946Z,18.90
2018-08-20T01:51:24.166Z,18.90
2018-08-20T01:53:53.136Z,18.90
2018-08-20T01:56:21.420Z,18.80
2018-08-20T01:58:49.665Z,18.80
2018-08-20T02:01:17.909Z,18.80
2018-08-20T02:03:46.899Z,18.80
2018-08-20T02:06:15.143Z,18.80
2018-08-20T02:08:43.409Z,18.80
2018-08-20T02:11:11.654Z,18.80
2018-08-20T02:13:39.926Z,18.80
2018-08-20T02:16:08.896Z,18.80
2018-08-20T02:18:37.109Z,18.80
2018-08-20T02:21:05.334Z,18.80
2018-08-20T02:23:33.538Z,18.70
2018-08-20T02:26:02.538Z,18.70
2018-08-20T02:28:31.547Z,18.60
2018-08-20T02:30:59.802Z,18.60
2018-08-20T02:33:28.811Z,18.60
2018-08-20T02:35:57.039Z,18.60
2018-08-20T02:38:25.291Z,18.50
2018-08-20T02:40:53.535Z,18.60
2018-08-20T02:43:22.515Z,18.50
2018-08-20T02:45:51.530Z,18.50
2018-08-20T02:48:19.755Z,18.50
2018-08-20T02:50:48.003Z,18.50
2018-08-20T02:53:16.261Z,18.50
2018-08-20T02:55:44.507Z,18.40
2018-08-20T02:58:12.731Z,18.40
2018-08-20T03:00:40.979Z,18.30
2018-08-20T03:03:09.961Z,18.20
2018-08-20T03:05:38.983Z,18.20
2018-08-20T03:08:07.213Z,18.20
2018-08-20T03:10:35.540Z,18.20
2018-08-20T03:13:03.784Z,18.20
2018-08-20T03:15:32.000Z,18.20
2018-08-20T03:18:00.209Z,18.20
2018-08-20T03:20:28.443Z,18.10
2018-08-20T03:22:56.685Z,18.00
2018-08-20T03:25:25.672Z,17.90
2018-08-20T03:27:55.391Z,17.90
2018-08-20T03:30:24.436Z,17.90
2018-08-20T03:32:52.649Z,17.90
2018-08-20T03:35:20.885Z,17.80
2018-08-20T03:37:49.095Z,17.90
2018-08-20T03:40:17.295Z,17.80
2018-08-20T03:42:46.291Z,17.80
2018-08-20T03:45:15.271Z,17.80
2018-08-20T03:47:43.535Z,17.70
2018-08-20T03:50:11.729Z,17.80
2018-08-20T03:52:40.787Z,17.70
2018-08-20T03:55:08.987Z,17.70
2018-08-20T03:57:37.202Z,17.70
2018-08-20T04:00:05.425Z,17.70
2018-08-20T04:02:33.679Z,17.60
2018-08-20T04:05:01.982Z,17.50
2018-08-20T04:07:30.139Z,17.50
2018-08-20T04:09:58.402Z,17.50
2018-08-20T04:12:26.653Z,17.40
2018-08-20T04:14:55.627Z,17.40
2018-08-20T04:17:24.592Z,17.30
2018-08-20T04:19:52.856Z,17.30
2018-08-20T04:22:21.060Z,17.30
2018-08-20T04:24:49.321Z,17.20
2018-08-20T04:27:17.524Z,17.20
2018-08-20T04:29:46.554Z,17.20
2018-08-20T04:32:15.224Z,17.20
2018-08-20T04:34:43.449Z,17.20
2018-08-20T04:37:11.670Z,17.10
2018-08-20T04:39:40.652Z,17.10
2018-08-20T04:42:08.910Z,17.10
2018-08-20T04:44:37.082Z,17.10
2018-08-20T04:47:05.322Z,17.20
2018-08-20T04:49:33.533Z,17.20
2018-08-20T04:52:01.786Z,17.20
2018-08-20T04:54:29.996Z,17.20
2018-08-20T04:56:58.208Z,17.20
2018-08-20T04:59:26.461Z,17.30
2018-08-20T05:01:54.664Z,17.30
2018-08-20T05:04:22.943Z,17.30
2018-08-20T05:06:51.913Z,17.50
2018-08-20T05:09:20.950Z,17.50
2018-08-20T05:11:49.152Z,17.50
2018-08-20T05:14:17.392Z,17.60
2018-08-20T05:16:45.607Z,17.60
2018-08-20T05:19:13.856Z,17.70
2018-08-20T05:21:42.126Z,17.70
2018-08-20T05:24:10.374Z,17.80
2018-08-20T05:26:39.351Z,17.90
2018-08-20T05:29:07.569Z,17.90
2018-08-20T05:31:35.791Z,18.00
2018-08-20T05:34:04.049Z,18.00
2018-08-20T05:36:32.293Z,18.10
2018-08-20T05:39:00.543Z,18.10
2018-08-20T05:41:29.515Z,18.20
2018-08-20T05:43:57.783Z,18.20
2018-08-20T05:46:25.993Z,18.30
2018-08-20T05:48:54.985Z,18.40
2018-08-20T05:51:24.010Z,18.40
2018-08-20T05:53:52.245Z,18.40
2018-08-20T05:56:20.492Z,18.50
2018-08-20T05:58:48.695Z,18.50
2018-08-20T06:01:17.723Z,18.70
2018-08-20T06:03:45.949Z,18.70
2018-08-20T06:06:14.171Z,18.70
2018-08-20T06:08:42.380Z,18.80
2018-08-20T06:11:10.601Z,18.90
2018-08-20T06:13:39.631Z,19.00
2018-08-20T06:16:07.855Z,19.00
2018-08-20T06:18:36.106Z,19.00
2018-08-20T06:21:04.339Z,19.20
2018-08-20T06:23:33.336Z,19.30
2018-08-20T06:26:02.349Z,19.40
2018-08-20T06:28:30.673Z,19.30
2018-08-20T06:30:58.872Z,19.50
2018-08-20T06:33:27.123Z,19.50
2018-08-20T06:35:55.345Z,19.60
2018-08-20T06:38:23.695Z,19.70
2018-08-20T06:40:52.629Z,19.90
2018-08-20T06:43:20.881Z,19.90
2018-08-20T06:45:49.901Z,20.10
2018-08-20T06:48:18.107Z,20.00
2018-08-20T06:50:46.371Z,20.20
2018-08-20T06:53:14.571Z,20.30
2018-08-20T06:55:42.798Z,20.30
2018-08-20T06:58:11.053Z,20.40
2018-08-20T07:00:40.104Z,20.60
2018-08-20T07:03:08.327Z,20.60
2018-08-20T07:05:37.288Z,20.80
2018-08-20T07:08:05.557Z,20.80
2018-08-20T07:10:33.764Z,20.90
2018-08-20T07:13:02.810Z,21.10
2018-08-20T07:15:31.021Z,21.10
2018-08-20T07:17:59.226Z,21.20
2018-08-20T07:20:27.497Z,21.30
2018-08-20T07:22:56.482Z,21.50
2018-08-20T07:25:24.744Z,21.50
2018-08-20T07:27:52.934Z,21.60
2018-08-20T07:30:21.927Z,21.80
2018-08-20T07:32:50.923Z,21.90
2018-08-20T07:35:19.138Z,21.80
2018-08-20T07:37:47.382Z,21.90
2018-08-20T07:40:16.379Z,22.10
2018-08-20T07:42:44.591Z,22.10
2018-08-20T07:45:12.801Z,22.20
2018-08-20T07:47:41.076Z,22.30
2018-08-20T07:50:09.267Z,22.30
2018-08-20T07:52:38.307Z,22.50
2018-08-20T07:55:06.511Z,22.50
2018-08-20T07:57:34.736Z,22.60
2018-08-20T08:00:02.994Z,22.70
2018-08-20T08:02:32.026Z,22.90
2018-08-20T08:05:00.266Z,22.80
2018-08-20T08:07:29.251Z,23.00
2018-08-20T08:09:57.509Z,23.00
2018-08-20T08:12:25.759Z,23.00
2018-08-20T08:14:53.969Z,23.10
2018-08-20T08:17:22.206Z,23.20
2018-08-20T08:19:50.557Z,23.30
2018-08-20T08:22:18.720Z,23.30
2018-08-20T08:24:46.986Z,23.40
2018-08-20T08:27:15.195Z,23.50
2018-08-20T08:29:43.469Z,23.60
2018-08-20T08:32:12.445Z,23.70
2018-08-20T08:34:41.416Z,23.80
2018-08-20T08:37:09.644Z,23.80
2018-08-20T08:39:37.865Z,23.90
2018-08-20T08:42:06.847Z,24.00
2018-08-20T08:44:35.054Z,24.00
2018-08-20T08:47:04.086Z,24.20
2018-08-20T08:49:32.322Z,24.10
2018-08-20T08:52:00.575Z,24.20
2018-08-20T08:54:28.784Z,24.30
2018-08-20T08:56:57.810Z,24.50
2018-08-20T08:59:26.070Z,24.50
2018-08-20T09:01:54.289Z,24.50
2018-08-20T09:04:22.514Z,24.60
2018-08-20T09:06:51.526Z,24.70
2018-08-20T09:09:19.781Z,24.70
2018-08-20T09:11:49.083Z,24.90
2018-08-20T09:14:18.085Z,24.90
2018-08-20T09:16:46.291Z,24.90
2018-08-20T09:19:14.559Z,25.00
2018-08-20T09:21:42.775Z,25.10
2018-08-20T09:24:11.006Z,25.10
2018-08-20T09:26:39.229Z,25.20
2018-08-20T09:29:07.435Z,25.30
2018-08-20T09:31:35.663Z,25.30
2018-08-20T09:34:03.874Z,25.40
2018-08-20T09:36:32.131Z,25.50
2018-08-20T09:39:01.221Z,25.60
2018-08-20T09:41:29.466Z,25.60
2018-08-20T09:43:57.678Z,25.70
2018-08-20T09:46:25.909Z,25.80
2018-08-20T09:48:54.174Z,25.90
2018-08-20T09:51:23.141Z,26.00
2018-08-20T09:53:51.368Z,26.00
2018-08-20T09:56:19.620Z,26.10
2018-08-20T09:58:47.846Z,26.10
2018-08-20T10:01:16.108Z,26.10
2018-08-20T10:03:44.310Z,26.20
2018-08-20T10:06:12.549Z,26.40
2018-08-20T10:08:40.740Z,26.40
2018-08-20T10:11:09.022Z,26.50
2018-08-20T10:13:37.260Z,26.50
2018-08-20T10:16:05.523Z,26.60
2018-08-20T10:18:34.607Z,26.70
2018-08-20T10:21:02.811Z,26.70
2018-08-20T10:23:31.014Z,26.70
2018-08-20T10:25:59.216Z,26.80
2018-08-20T10:28:27.479Z,26.90
2018-08-20T10:30:55.716Z,27.00
2018-08-20T10:33:23.984Z,27.10
2018-08-20T10:35:52.996Z,27.30
2018-08-20T10:38:21.215Z,27.30
2018-08-20T10:40:49.418Z,27.50
2018-08-20T10:43:18.446Z,27.80
2018-08-20T10:45:46.652Z,27.80
2018-08-20T10:48:14.871Z,28.00
2018-08-20T10:50:43.104Z,28.10
2018-08-20T10:53:11.360Z,28.30
2018-08-20T10:55:39.584Z,28.50
2018-08-20T10:58:08.616Z,28.90
2018-08-20T11:00:36.880Z,28.90
2018-08-20T11:03:05.089Z,29.10
2018-08-20T11:05:33.314Z,29.30
2018-08-20T11:08:02.288Z,29.70
2018-08-20T11:10:30.554Z,29.70
2018-08-20T11:12:58.824Z,29.80
2018-08-20T11:15:27.061Z,30.00
2018-08-20T11:17:55.316Z,30.20
2018-08-20T11:20:24.330Z,30.40
2018-08-20T11:22:52.586Z,30.40
2018-08-20T11:25:21.554Z,30.60
2018-08-20T11:27:49.777Z,30.60
2018-08-20T11:30:18.062Z,30.70
2018-08-20T11:32:47.078Z,30.90
2018-08-20T11:35:15.320Z,30.90
2018-08-20T11:37:43.536Z,30.90
2018-08-20T11:40:11.805Z,31.10
2018-08-20T11:42:40.057Z,31.10
2018-08-20T11:45:09.066Z,31.30
2018-08-20T11:47:37.270Z,31.30
2018-08-20T11:50:05.541Z,31.40
2018-08-20T11:52:33.769Z,31.60
2018-08-20T11:55:02.738Z,31.90
2018-08-20T11:57:31.018Z,31.90
2018-08-20T11:59:59.261Z,32.00
2018-08-20T12:02:27.473Z,32.10
2018-08-20T12:04:56.499Z,32.20
2018-08-20T12:07:24.832Z,32.20
2018-08-20T12:09:53.773Z,32.40
2018-08-20T12:12:21.992Z,32.40
2018-08-20T12:14:50.206Z,32.40
2018-08-20T12:17:19.303Z,32.60
2018-08-20T12:19:47.507Z,32.60
2018-08-20T12:22:16.614Z,32.60
2018-08-20T12:24:44.799Z,32.80
2018-08-20T12:27:13.064Z,33.00
2018-08-20T12:29:41.315Z,33.10
2018-08-20T12:32:09.541Z,33.20
2018-08-20T12:34:37.815Z,33.20
2018-08-20T12:37:06.064Z,33.40
2018-08-20T12:39:34.283Z,33.50
2018-08-20T12:42:03.310Z,33.60
2018-08-20T12:44:31.592Z,33.50
2018-08-20T12:46:59.857Z,33.50
2018-08-20T12:49:28.832Z,33.30
2018-08-20T12:51:57.855Z,33.30
2018-08-20T12:54:26.095Z,33.30
2018-08-20T12:56:54.336Z,33.40
2018-08-20T12:59:22.545Z,33.40
2018-08-20T13:01:50.768Z,33.50
2018-08-20T13:04:18.983Z,33.60
2018-08-20T13:06:47.213Z,33.60
2018-08-20T13:09:15.482Z,33.80
2018-08-20T13:11:44.434Z,34.10
2018-08-20T13:14:12.706Z,34.00
2018-08-20T13:16:40.916Z,34.20
2018-08-20T13:19:09.908Z,34.30
2018-08-20T13:21:38.938Z,34.30
2018-08-20T13:24:07.166Z,34.30
2018-08-20T13:26:35.385Z,34.30
2018-08-20T13:29:03.618Z,34.30
2018-08-20T13:31:31.830Z,34.10
2018-08-20T13:34:00.036Z,33.90
2018-08-20T13:36:28.288Z,33.80
2018-08-20T13:38:57.301Z,33.50
2018-08-20T13:41:25.576Z,33.50
2018-08-20T13:43:53.836Z,33.40
2018-08-20T13:46:22.818Z,33.20
2018-08-20T13:48:51.092Z,33.20
2018-08-20T13:51:20.086Z,33.10
2018-08-20T13:53:48.343Z,33.10
2018-08-20T13:56:16.604Z,33.10
2018-08-20T13:58:44.858Z,33.10
2018-08-20T14:01:13.122Z,33.10
2018-08-20T14:03:41.398Z,33.10
2018-08-20T14:06:09.644Z,33.10
2018-08-20T14:08:38.633Z,33.20
2018-08-20T14:11:07.615Z,33.40
2018-08-20T14:13:36.675Z,33.50
2018-08-20T14:16:05.677Z,33.50
2018-08-20T14:18:33.915Z,33.50
2018-08-20T14:21:02.143Z,33.50
2018-08-20T14:23:30.423Z,33.50
2018-08-20T14:25:58.669Z,33.60
2018-08-20T14:28:26.881Z,33.60
2018-08-20T14:30:55.109Z,33.70
2018-08-20T14:33:23.316Z,33.80
2018-08-20T14:35:51.552Z,33.80
2018-08-20T14:38:19.805Z,33.80
2018-08-20T14:40:48.801Z,33.70
2018-08-20T14:43:17.844Z,33.60
2018-08-20T14:45:46.083Z,33.60
2018-08-20T14:48:14.312Z,33.70
2018-08-20T14:50:42.564Z,33.80
2018-08-20T14:53:10.775Z,34.20
2018-08-20T14:55:39.045Z,34.70
2018-08-20T14:58:07.261Z,35.30
2018-08-20T15:00:35.553Z,36.00
2018-08-20T15:03:03.762Z,36.50
2018-08-20T15:05:32.014Z,36.60
2018-08-20T15:08:00.446Z,36.50
2018-08-20T15:10:28.707Z,36.10
2018-08-20T15:12:56.927Z,35.70
2018-08-20T15:15:25.188Z,35.40
2018-08-20T15:17:53.378Z,35.50
2018-08-20T15:20:21.651Z,35.50
2018-08-20T15:22:50.667Z,35.40
2018-08-20T15:25:18.922Z,35.40
2018-08-20T15:27:47.135Z,35.40
2018-08-20T15:30:15.407Z,35.40
2018-08-20T15:32:43.691Z,35.40
2018-08-20T15:35:11.936Z,35.40
2018-08-20T15:37:40.139Z,35.20
2018-08-20T15:40:08.413Z,35.20
2018-08-20T15:42:36.658Z,35.10
2018-08-20T15:45:05.676Z,34.90
2018-08-20T15:47:33.909Z,34.90
2018-08-20T15:50:02.931Z,34.70
2018-08-20T15:52:31.222Z,34.60
2018-08-20T15:54:59.420Z,34.60
2018-08-20T15:57:27.646Z,34.40
2018-08-20T15:59:56.652Z,34.20
2018-08-20T16:02:24.922Z,34.20
2018-08-20T16:04:53.917Z,34.10
2018-08-20T16:07:22.932Z,34.00
2018-08-20T16:09:51.139Z,34.00
2018-08-20T16:12:19.358Z,34.00
2018-08-20T16:14:48.399Z,33.80
2018-08-20T16:17:16.647Z,33.80
2018-08-20T16:19:44.914Z,33.70
2018-08-20T16:22:13.894Z,33.50
2018-08-20T16:24:42.164Z,33.50
2018-08-20T16:27:10.428Z,33.40
2018-08-20T16:29:38.662Z,33.30
2018-08-20T16:32:06.892Z,33.20
2018-08-20T16:34:35.142Z,33.10
2018-08-20T16:37:03.373Z,32.90
2018-08-20T16:39:31.616Z,32.80
2018-08-20T16:41:59.825Z,32.80
2018-08-20T16:44:28.105Z,32.80
2018-08-20T16:46:56.375Z,32.70
2018-08-20T16:49:24.581Z,32.50
2018-08-20T16:51:52.801Z,32.40
2018-08-20T16:54:21.395Z,32.30
2018-08-20T16:56:50.363Z,32.00
2018-08-20T16:59:18.593Z,32.00
2018-08-20T17:01:46.857Z,31.90
2018-08-20T17:04:15.894Z,31.60
2018-08-20T17:06:44.141Z,31.60
2018-08-20T17:09:12.360Z,31.50
2018-08-20T17:11:40.616Z,31.30
2018-08-20T17:14:08.887Z,31.20
2018-08-20T17:16:37.151Z,31.10
2018-08-20T17:19:05.406Z,30.90
2018-08-20T17:21:34.389Z,30.70
2018-08-20T17:24:03.371Z,30.50
2018-08-20T17:26:31.601Z,30.50
2018-08-20T17:28:59.852Z,30.40
2018-08-20T17:31:28.833Z,30.30
2018-08-20T17:33:57.862Z,30.20
2018-08-20T17:36:26.117Z,30.10
2018-08-20T17:38:54.379Z,30.10
2018-08-20T17:41:22.641Z,30.00
2018-08-20T17:43:50.843Z,29.90
2018-08-20T17:46:19.855Z,29.70
2018-08-20T17:48:49.035Z,29.70
2018-08-20T17:51:18.075Z,29.50
2018-08-20T17:53:46.339Z,29.50
2018-08-20T17:56:14.623Z,29.40
2018-08-20T17:58:42.839Z,29.30
2018-08-20T18:01:11.155Z,29.20
2018-08-20T18:03:39.316Z,29.10
2018-08-20T18:06:07.551Z,29.00
2018-08-20T18:08:35.819Z,29.00
2018-08-20T18:11:04.831Z,28.70
2018-08-20T18:13:33.086Z,28.70
2018-08-20T18:16:01.304Z,28.70
2018-08-20T18:18:30.344Z,28.50
2018-08-20T18:20:58.573Z,28.40
2018-08-20T18:23:27.661Z,28.40
2018-08-20T18:25:55.859Z,28.30
2018-08-20T18:28:24.878Z,28.20
2018-08-20T18:30:53.116Z,28.20
2018-08-20T18:33:22.159Z,28.00
2018-08-20T18:35:50.424Z,28.00
2018-08-20T18:38:18.677Z,28.00
2018-08-20T18:40:47.675Z,27.80
2018-08-20T18:43:15.938Z,27.80
2018-08-20T18:45:44.962Z,27.70
2018-08-20T18:48:13.202Z,27.60
2018-08-20T18:50:41.412Z,27.60
2018-08-20T18:53:09.684Z,27.50
2018-08-20T18:55:37.884Z,27.50
2018-08-20T18:58:06.150Z,27.30
2018-08-20T19:00:34.361Z,27.30
2018-08-20T19:03:02.657Z,27.30
2018-08-20T19:05:30.892Z,27.20
2018-08-20T19:07:59.139Z,27.20
2018-08-20T19:10:28.150Z,27.10
2018-08-20T19:12:56.414Z,27.10
2018-08-20T19:15:24.638Z,27.00
2018-08-20T19:17:52.901Z,26.90
2018-08-20T19:20:21.159Z,26.90
2018-08-20T19:22:49.384Z,26.80
2018-08-20T19:25:17.656Z,26.80
2018-08-20T19:27:45.891Z,26.80
2018-08-20T19:30:14.178Z,26.70
2018-08-20T19:32:42.413Z,26.60
2018-08-20T19:35:11.412Z,26.60
2018-08-20T19:37:39.678Z,26.50
2018-08-20T19:40:08.669Z,26.40
2018-08-20T19:42:37.650Z,26.40
2018-08-20T19:45:05.872Z,26.40
2018-08-20T19:47:34.109Z,26.40
2018-08-20T19:50:02.333Z,26.30
2018-08-20T19:52:30.554Z,26.20
2018-08-20T19:54:58.817Z,26.10
2018-08-20T19:57:27.082Z,26.10
2018-08-20T19:59:55.325Z,26.00
2018-08-20T20:02:23.608Z,26.00
2018-08-20T20:04:51.876Z,26.00
2018-08-20T20:07:20.095Z,26.00
2018-08-20T20:09:48.367Z,25.90
2018-08-20T20:12:16.642Z,25.90
2018-08-20T20:14:45.581Z,25.80
2018-08-20T20:17:14.573Z,25.70
2018-08-20T20:19:42.845Z,25.70
2018-08-20T20:22:11.082Z,25.70
2018-08-20T20:24:39.348Z,25.60
2018-08-20T20:27:07.561Z,25.50
2018-08-20T20:29:35.794Z,25.50
2018-08-20T20:32:04.056Z,25.50
2018-08-20T20:34:32.436Z,25.40
2018-08-20T20:37:00.649Z,25.30
2018-08-20T20:39:28.885Z,25.30
2018-08-20T20:41:57.097Z,25.30
2018-08-20T20:44:25.335Z,25.20
2018-08-20T20:46:53.596Z,25.20
2018-08-20T20:49:22.578Z,25.20
2018-08-20T20:51:50.844Z,25.10
2018-08-20T20:54:19.101Z,25.10
2018-08-20T20:56:47.295Z,25.10
2018-08-20T20:59:15.567Z,25.10
2018-08-20T21:01:43.840Z,25.00
2018-08-20T21:04:12.043Z,25.00
2018-08-20T21:06:41.038Z,25.00
2018-08-20T21:09:10.014Z,25.00
2018-08-20T21:11:38.281Z,24.90
2018-08-20T21:14:06.515Z,24.90
2018-08-20T21:16:35.472Z,24.90
2018-08-20T21:19:04.497Z,24.90
2018-08-20T21:21:32.717Z,24.90
2018-08-20T21:24:00.939Z,24.90
2018-08-20T21:26:29.172Z,24.90
2018-08-20T21:28:57.491Z,24.90
2018-08-20T21:31:26.499Z,24.90
2018-08-20T21:33:54.708Z,24.80
2018-08-20T21:36:22.969Z,24.80
2018-08-20T21:38:51.196Z,24.80
2018-08-20T21:41:20.269Z,24.80
2018-08-20T21:43:48.524Z,24.80
2018-08-20T21:46:16.786Z,24.80
2018-08-20T21:48:45.050Z,24.70
2018-08-20T21:51:14.058Z,24.70
2018-08-20T21:53:42.268Z,24.70
2018-08-20T21:56:10.540Z,24.70
2018-08-20T21:58:38.835Z,24.70
2018-08-20T22:01:07.100Z,24.60
2018-08-20T22:03:35.255Z,24.60
2018-08-20T22:06:03.468Z,24.60
2018-08-20T22:08:32.491Z,24.60
2018-08-20T22:11:01.479Z,24.50
2018-08-20T22:13:30.458Z,24.50
2018-08-20T22:15:59.455Z,24.50
2018-08-20T22:18:28.433Z,24.50
2018-08-20T22:20:56.689Z,24.50
2018-08-20T22:23:38.812Z,24.50
2018-08-20T22:25:53.197Z,24.40
2018-08-20T22:28:22.165Z,24.40
2018-08-20T22:30:50.390Z,24.40
2018-08-20T22:33:18.653Z,24.30
2018-08-20T22:35:46.896Z,24.40
2018-08-20T22:38:15.137Z,24.30
2018-08-20T22:40:43.370Z,24.30
2018-08-20T22:43:11.590Z,24.20
2018-08-20T22:45:39.852Z,24.20
2018-08-20T22:48:08.087Z,24.10
2018-08-20T22:50:37.064Z,24.10
2018-08-20T22:53:05.329Z,24.10
2018-08-20T22:55:33.544Z,24.10
2018-08-20T22:58:01.814Z,24.00
2018-08-20T23:00:30.829Z,23.90
2018-08-20T23:02:59.052Z,23.90
2018-08-20T23:05:27.304Z,23.90
2018-08-20T23:07:55.546Z,23.90
2018-08-20T23:10:23.766Z,23.70
2018-08-20T23:12:51.988Z,23.70
2018-08-20T23:15:20.206Z,23.70
2018-08-20T23:17:48.494Z,23.60
2018-08-20T23:20:16.701Z,23.50
2018-08-20T23:22:44.933Z,23.50
2018-08-20T23:25:13.132Z,23.40
2018-08-20T23:27:41.352Z,23.40
2018-08-20T23:30:09.606Z,23.30
2018-08-20T23:32:37.858Z,23.20
2018-08-20T23:35:06.121Z,23.10
2018-08-20T23:37:34.328Z,23.00
2018-08-20T23:40:02.549Z,23.00
2018-08-20T23:42:30.806Z,22.90
2018-08-20T23:44:59.836Z,22.80
2018-08-20T23:47:28.366Z,22.80
2018-08-20T23:49:56.594Z,22.70
2018-08-20T23:52:24.843Z,22.70
2018-08-20T23:54:53.861Z,22.60
2018-08-20T23:57:22.123Z,22.60
2018-08-20T23:59:50.323Z,22.50
